Time;durP1;ratioP1;P1;durP2;ratioP2;P2;SDS_P1;SDS_P2;PMS_P1;PMS_P2;Temp;Humidity;BMP_temperature;BMP_pressure;BME280_temperature;BME280_humidity;BME280_pressure;Samples;Min_cycle;Max_cycle;Signal;HPM_P1;HPM_P2
2022/04/20 00:00:09;;;;;;;47.63;23.50;;;;;;;30.72;57.51;100927.94;5029346;28;68824;-33
2022/04/20 00:02:40;;;;;;;43.00;20.88;;;;;;;30.72;57.51;100925.25;5027951;28;66059;-36
2022/04/20 00:05:11;;;;;;;50.72;23.27;;;;;;;30.82;58.42;100915.84;5031318;28;70473;-34
2022/04/20 00:07:42;;;;;;;42.42;22.35;;;;;;;30.86;57.98;100911.66;5033033;28;66633;-34
2022/04/20 00:10:13;;;;;;;46.78;22.50;;;;;;;30.98;57.66;100926.16;5038130;28;71035;-33
2022/04/20 00:12:44;;;;;;;34.15;20.63;;;;;;;31.02;57.57;100938.19;5039935;28;66324;-33
2022/04/20 00:15:14;;;;;;;50.65;22.23;;;;;;;30.95;62.53;100940.09;5039216;28;70109;-33
2022/04/20 00:17:45;;;;;;;47.22;23.10;;;;;;;30.96;63.24;100943.69;5040092;28;66320;-33
2022/04/20 00:20:17;;;;;;;51.40;23.88;;;;;;;30.91;63.49;100942.44;5041982;28;69019;-33
2022/04/20 00:22:48;;;;;;;58.95;23.77;;;;;;;30.76;64.25;100938.34;5034673;28;66421;-35
2022/04/20 00:25:19;;;;;;;47.10;22.20;;;;;;;30.89;63.88;100966.19;5021054;28;69384;-33
2022/04/20 00:27:50;;;;;;;49.30;23.25;;;;;;;30.90;64.30;100959.75;5040967;28;65496;-35
2022/04/20 00:30:21;;;;;;;44.67;21.90;;;;;;;30.91;64.68;100963.28;5038083;28;69216;-34
2022/04/20 00:32:53;;;;;;;39.22;22.52;;;;;;;30.86;64.54;100952.28;5034228;28;65632;-34
2022/04/20 00:35:23;;;;;;;46.45;22.80;;;;;;;30.89;65.52;100959.94;5035451;28;71249;-34
2022/04/20 00:37:55;;;;;;;45.25;21.73;;;;;;;30.96;65.38;100966.16;5038824;28;65699;-33
2022/04/20 00:40:26;;;;;;;45.63;24.27;;;;;;;30.90;65.78;100958.94;5035850;28;70525;-33
2022/04/20 00:42:56;;;;;;;47.33;20.35;;;;;;;31.12;63.01;100970.22;5039136;28;65276;-33
2022/04/20 00:45:31;;;;;;;29.60;17.77;;;;;;;30.84;61.68;100913.72;5030356;28;70350;-33
2022/04/20 00:48:03;;;;;;;33.03;16.88;;;;;;;31.28;61.31;100985.09;5023719;28;65718;-32
2022/04/20 00:50:34;;;;;;;25.42;16.20;;;;;;;31.32;60.66;100980.91;5026742;28;70304;-32
2022/04/20 00:53:05;;;;;;;23.40;16.35;;;;;;;31.32;60.55;100961.94;5030780;28;64927;-32
2022/04/20 00:55:37;;;;;;;27.83;16.90;;;;;;;31.43;60.67;100980.22;5036204;28;70188;-35
2022/04/20 00:58:13;;;;;;;25.98;17.05;;;;;;;31.51;59.79;100981.81;5020946;28;65906;-32
2022/04/20 01:00:43;;;;;;;22.80;15.95;;;;;;;31.55;59.61;100986.56;5031937;28;70503;-32
2022/04/20 01:03:14;;;;;;;36.95;18.30;;;;;;;31.54;59.82;100971.38;5036562;28;65880;-34
2022/04/20 01:06:05;;;;;;;24.80;17.08;;;;;;;31.63;59.27;100982.75;5036781;28;70185;-33
2022/04/20 01:08:54;;;;;;;27.35;16.70;;;;;;;31.59;59.27;100974.25;5032977;28;65714;-32
2022/04/20 01:11:45;;;;;;;23.98;15.77;;;;;;;31.67;58.86;100983.94;5002625;28;69224;-32
2022/04/20 01:14:32;;;;;;;23.15;16.27;;;;;;;31.70;58.48;100983.50;5037956;28;65479;-34
2022/04/20 01:17:16;;;;;;;24.88;16.52;;;;;;;31.72;58.63;100986.81;5028771;28;70139;-33
2022/04/20 01:20:18;;;;;;;24.25;16.35;;;;;;;31.80;58.21;100996.56;4999369;28;66110;-33
2022/04/20 01:23:25;;;;;;;30.30;17.75;;;;;;;31.80;57.93;100996.56;4965077;28;69644;-32
2022/04/20 01:26:27;;;;;;;29.15;15.35;;;;;;;31.86;57.97;100992.94;5021843;28;65868;-33
2022/04/20 01:29:22;;;;;;;22.48;15.57;;;;;;;31.92;57.99;101002.09;5032875;28;69215;-32
2022/04/20 01:32:02;;;;;;;30.63;16.92;;;;;;;31.94;57.67;101008.97;5035904;28;65752;-32
2022/04/20 01:34:52;;;;;;;21.50;16.08;;;;;;;31.96;57.64;101012.28;5017864;28;68842;-32
2022/04/20 01:37:22;;;;;;;23.85;16.25;;;;;;;31.91;57.68;100993.13;5028825;28;66285;-32
2022/04/20 01:39:53;;;;;;;21.02;15.82;;;;;;;32.01;57.19;101000.75;5028811;28;69987;-33
2022/04/20 01:42:25;;;;;;;23.70;15.70;;;;;;;32.04;57.19;101006.56;5042640;28;66017;-33
2022/04/20 01:45:01;;;;;;;25.08;16.80;;;;;;;31.84;57.13;100973.34;5033234;28;70088;-34
2022/04/20 01:48:10;;;;;;;26.15;15.82;;;;;;;32.12;57.02;101021.69;5022117;28;65682;-33
2022/04/20 01:53:56;;;;;;;24.77;17.02;;;;;;;32.16;56.69;101011.25;5026943;28;66148;-32
2022/04/20 01:56:43;;;;;;;24.77;17.00;;;;;;;32.20;56.71;101010.56;5030031;28;70414;-33
2022/04/20 01:59:34;;;;;;;23.95;16.35;;;;;;;32.25;56.44;100999.03;5034382;28;66448;-33
2022/04/20 02:02:38;;;;;;;34.20;17.88;;;;;;;32.29;56.63;101008.38;5022450;28;70263;-34
2022/04/20 02:05:35;;;;;;;23.55;17.17;;;;;;;32.29;56.23;100997.53;5020064;28;65213;-33
2022/04/20 02:08:25;;;;;;;21.10;16.23;;;;;;;32.33;56.33;100997.91;5029798;28;69702;-33
2022/04/20 02:11:28;;;;;;;25.73;17.27;;;;;;;32.37;56.37;100996.38;5017087;28;65574;-33
2022/04/20 02:14:12;;;;;;;21.63;16.23;;;;;;;32.28;56.37;100979.56;5047422;28;69985;-33
2022/04/20 02:16:48;;;;;;;27.38;17.90;;;;;;;32.37;56.00;100994.47;5036782;28;65943;-32
2022/04/20 02:19:45;;;;;;;21.90;16.85;;;;;;;32.43;55.69;100999.03;5030491;28;70815;-33
2022/04/20 02:22:18;;;;;;;21.73;16.13;;;;;;;32.46;55.56;100997.78;5030659;28;65845;-33
2022/04/20 02:24:49;;;;;;;24.75;16.80;;;;;;;32.49;55.52;101000.84;5027025;28;69552;-33
2022/04/20 02:27:20;;;;;;;24.08;16.50;;;;;;;32.51;55.78;100999.78;5024877;28;66146;-32
2022/04/20 02:29:51;;;;;;;23.67;17.27;;;;;;;32.52;55.58;100996.03;5012589;28;70146;-33
2022/04/20 02:32:22;;;;;;;27.58;17.25;;;;;;;32.46;55.02;100982.31;5036523;28;67718;-33
2022/04/20 02:34:53;;;;;;;25.50;16.90;;;;;;;32.51;54.88;100980.78;5031758;28;70706;-33
2022/04/20 02:37:24;;;;;;;26.70;17.13;;;;;;;32.49;55.05;100973.69;5037069;28;65402;-33
2022/04/20 02:39:55;;;;;;;28.63;17.10;;;;;;;32.60;54.99;100977.53;5038495;28;70781;-33
2022/04/20 02:42:25;;;;;;;22.63;16.85;;;;;;;32.63;55.13;100976.25;5038757;28;66552;-34
2022/04/20 02:44:56;;;;;;;21.65;17.33;;;;;;;32.64;54.90;100972.44;5039006;28;69993;-32
2022/04/20 02:47:27;;;;;;;22.35;16.50;;;;;;;32.57;54.85;100960.84;5038775;28;66200;-33
2022/04/20 02:49:57;;;;;;;22.70;16.40;;;;;;;32.69;54.99;100972.59;5039210;28;69201;-33
2022/04/20 02:52:28;;;;;;;25.60;16.13;;;;;;;32.70;54.90;100976.97;5037832;28;66458;-33
2022/04/20 02:54:59;;;;;;;22.08;17.00;;;;;;;32.65;54.57;100957.81;5028523;28;69268;-32
2022/04/20 02:57:30;;;;;;;24.33;17.00;;;;;;;32.42;54.34;100926.75;5037885;28;66220;-31
2022/04/20 03:00:01;;;;;;;23.00;16.52;;;;;;;32.62;54.39;100950.94;5038657;28;70385;-32
2022/04/20 03:02:37;;;;;;;24.42;16.50;;;;;;;32.64;54.37;100946.13;5036391;28;66032;-32
2022/04/20 03:05:08;;;;;;;23.55;16.83;;;;;;;32.79;54.28;100963.88;5032776;28;70100;-34
2022/04/20 03:07:39;;;;;;;21.50;16.05;;;;;;;32.78;54.38;100957.63;5019982;28;66053;-34
2022/04/20 03:10:10;;;;;;;23.73;16.95;;;;;;;32.81;54.27;100951.72;5036302;28;69850;-33
2022/04/20 03:12:44;;;;;;;26.65;16.77;;;;;;;32.80;54.13;100950.06;5020789;28;65441;-34
2022/04/20 03:15:16;;;;;;;22.50;16.93;;;;;;;32.83;54.43;100949.59;5038303;28;69913;-33
2022/04/20 03:17:47;;;;;;;;;;;;;;;32.52;54.58;100952.56;5052943;28;65768;-32
2022/04/20 03:20:18;;;;;;;22.38;15.88;;;;;;;32.61;54.10;100908.56;5053367;28;70368;-33
2022/04/20 03:22:49;;;;;;;20.35;15.30;;;;;;;32.89;53.80;100948.66;5040299;28;65249;-34
2022/04/20 03:25:19;;;;;;;30.95;16.80;;;;;;;32.90;54.12;100944.06;5041191;28;69936;-33
2022/04/20 03:28:18;;;;;;;20.65;15.77;;;;;;;32.85;54.12;100942.06;5036190;28;66493;-32
2022/04/20 03:30:49;;;;;;;21.37;15.30;;;;;;;32.77;53.95;100923.38;5025348;28;69892;-34
2022/04/20 03:33:21;;;;;;;26.30;16.23;;;;;;;32.94;53.96;100939.84;5042557;28;65695;-35
2022/04/20 03:35:51;;;;;;;;;;;;;;;32.62;54.32;100941.97;5039746;28;70411;-33
2022/04/20 03:38:23;;;;;;;19.38;15.15;;;;;;;32.92;53.90;100937.34;5041691;28;67349;-33
2022/04/20 03:40:55;;;;;;;23.40;15.88;;;;;;;32.95;53.80;100941.47;5041931;28;70396;-33
2022/04/20 03:43:25;;;;;;;28.67;16.58;;;;;;;33.00;53.81;100938.94;5042033;28;67059;-33
2022/04/20 03:45:56;;;;;;;28.35;17.83;;;;;;;33.01;53.83;100937.03;5042528;28;70947;-32
2022/04/20 03:48:27;;;;;;;23.15;16.17;;;;;;;33.02;53.68;100925.13;5041413;28;65207;-32
2022/04/20 03:50:59;;;;;;;32.45;16.42;;;;;;;33.05;53.71;100930.09;5040376;28;69156;-34
2022/04/20 03:53:32;;;;;;;20.40;15.82;;;;;;;32.98;53.58;100907.56;5040324;28;66302;-32
2022/04/20 03:56:05;;;;;;;22.35;16.20;;;;;;;33.12;53.58;100941.66;5039828;28;70337;-33
2022/04/20 03:58:37;;;;;;;21.88;16.23;;;;;;;33.00;53.36;100910.94;5039103;28;66123;-32
2022/04/20 04:01:08;;;;;;;26.17;16.50;;;;;;;33.08;53.47;100922.28;5040221;28;70635;-32
2022/04/20 04:03:40;;;;;;;19.30;15.30;;;;;;;33.17;53.52;100930.91;5041015;28;66341;-32
2022/04/20 04:06:17;;;;;;;21.95;15.73;;;;;;;33.20;53.34;100924.19;5039512;28;69944;-33
2022/04/20 04:08:48;;;;;;;20.95;16.05;;;;;;;33.02;53.05;100892.50;5026543;28;66306;-32
2022/04/20 04:11:18;;;;;;;28.95;17.00;;;;;;;33.18;53.29;100905.38;5032959;28;69823;-33
2022/04/20 04:13:49;;;;;;;20.60;15.50;;;;;;;33.25;53.28;100906.09;5040530;28;66270;-33
2022/04/20 04:16:20;;;;;;;21.25;15.30;;;;;;;33.24;53.20;100907.16;5038815;28;69791;-33
2022/04/20 04:18:52;;;;;;;15.98;14.27;;;;;;;33.26;53.31;100899.59;5020729;28;66092;-33
2022/04/20 04:21:22;;;;;;;20.48;15.43;;;;;;;33.29;53.24;100893.72;5040397;28;70026;-33
2022/04/20 04:23:54;;;;;;;23.90;15.23;;;;;;;33.31;52.98;100890.72;5039188;28;66772;-33
2022/04/20 04:26:48;;;;;;;24.05;14.93;;;;;;;33.31;52.97;100880.69;5041836;28;70582;-33
2022/04/20 04:29:19;;;;;;;20.20;15.07;;;;;;;33.35;52.87;100875.63;5038728;28;64825;-32
2022/04/20 04:31:49;;;;;;;19.80;14.98;;;;;;;33.36;52.84;100878.09;5040582;28;70199;-33
2022/04/20 04:34:21;;;;;;;18.90;14.82;;;;;;;33.37;52.59;100874.28;5039526;28;66484;-33
2022/04/20 04:36:59;;;;;;;20.10;14.60;;;;;;;33.37;52.70;100868.84;5025448;28;69539;-33
2022/04/20 04:39:30;;;;;;;17.37;14.90;;;;;;;33.42;52.60;100872.75;5021838;28;66119;-32
2022/04/20 04:42:04;;;;;;;19.13;14.50;;;;;;;33.37;52.42;100857.97;5038482;28;69975;-33
2022/04/20 04:44:36;;;;;;;18.98;13.80;;;;;;;33.43;52.39;100860.81;5035956;28;66264;-33
2022/04/20 04:50:01;;;;;;;18.30;14.05;;;;;;;33.48;52.36;100863.66;5051570;28;65363;-33
2022/04/20 04:52:33;;;;;;;16.70;13.43;;;;;;;33.48;52.33;100858.22;5035250;28;70405;-33
2022/04/20 04:55:09;;;;;;;19.65;14.43;;;;;;;33.48;52.38;100852.75;5040688;28;66639;-33
2022/04/20 04:57:41;;;;;;;20.83;13.80;;;;;;;33.49;52.15;100844.38;5038782;28;70425;-33
2022/04/20 05:00:13;;;;;;;14.82;13.35;;;;;;;33.50;52.15;100839.75;5021447;28;65923;-33
2022/04/20 05:03:02;;;;;;;18.75;13.35;;;;;;;33.51;52.20;100836.78;5038781;28;68754;-33
2022/04/20 05:05:33;;;;;;;15.20;13.60;;;;;;;33.53;51.99;100836.59;5038407;28;65805;-33
2022/04/20 05:08:04;;;;;;;16.88;12.98;;;;;;;33.52;52.04;100834.91;5039231;28;70498;-32
2022/04/20 05:10:36;;;;;;;19.57;13.57;;;;;;;33.43;51.98;100825.47;5037714;28;67129;-33
2022/04/20 05:13:08;;;;;;;15.43;13.77;;;;;;;33.51;52.11;100825.09;5044698;28;70101;-31
2022/04/20 05:15:42;;;;;;;19.17;13.85;;;;;;;33.57;51.95;100826.88;5037994;28;66071;-33
2022/04/20 05:18:13;;;;;;;16.33;13.20;;;;;;;33.50;52.01;100813.38;5038850;28;70212;-33
2022/04/20 05:20:44;;;;;;;15.77;12.88;;;;;;;33.44;51.99;100799.94;5038485;28;65147;-33
2022/04/20 05:23:18;;;;;;;16.60;13.45;;;;;;;33.55;51.97;100810.00;5037779;28;69169;-34
2022/04/20 05:25:49;;;;;;;18.67;13.38;;;;;;;33.60;52.08;100810.09;5038309;28;65277;-33
2022/04/20 05:28:20;;;;;;;17.33;13.10;;;;;;;33.59;51.88;100803.00;5036606;28;71435;-33
2022/04/20 05:30:52;;;;;;;14.63;13.07;;;;;;;33.58;51.83;100793.19;5039799;28;65594;-32
2022/04/20 05:33:23;;;;;;;15.80;13.07;;;;;;;33.65;51.79;100795.75;5037403;28;69789;-37
2022/04/20 05:35:54;;;;;;;15.23;12.67;;;;;;;33.60;51.37;100788.34;5038961;28;65917;-33
2022/04/20 05:44:11;;;;;;;14.52;12.70;;;;;;;33.73;51.38;100784.50;5033930;28;70033;-33
2022/04/20 05:46:45;;;;;;;17.33;13.02;;;;;;;33.75;51.54;100760.59;5035817;28;66532;-34
2022/04/20 05:49:20;;;;;;;17.83;12.50;;;;;;;33.73;51.58;100751.84;5038641;28;69103;-33
2022/04/20 05:51:51;;;;;;;12.90;11.65;;;;;;;33.71;51.73;100746.69;5055384;28;65684;-33
2022/04/20 05:54:23;;;;;;;14.15;12.57;;;;;;;33.72;51.50;100739.34;5037966;28;70414;-33
2022/04/20 05:56:54;;;;;;;14.48;11.52;;;;;;;33.79;51.69;100740.84;5034958;28;66318;-33
2022/04/20 05:59:26;;;;;;;14.52;12.30;;;;;;;33.84;51.44;100736.56;5038212;28;69187;-33
2022/04/20 06:01:58;;;;;;;13.63;12.43;;;;;;;33.83;51.50;100730.28;5040118;28;66489;-33
2022/04/20 06:04:30;;;;;;;14.10;12.77;;;;;;;33.88;51.37;100732.25;5036959;28;70006;-33
2022/04/20 06:07:04;;;;;;;13.63;12.27;;;;;;;33.93;51.52;100724.19;5039293;28;66322;-32
2022/04/20 06:09:39;;;;;;;13.10;11.80;;;;;;;33.84;51.60;100701.19;5035459;28;70698;-33
2022/04/20 06:12:13;;;;;;;14.07;12.80;;;;;;;33.97;51.31;100704.41;5029911;28;65290;-33
2022/04/20 06:15:13;;;;;;;13.60;12.20;;;;;;;34.00;51.03;100700.38;5024088;28;69249;-31
2022/04/20 06:18:02;;;;;;;16.42;12.32;;;;;;;34.02;50.87;100695.53;5036308;28;66123;-34
2022/04/20 06:20:33;;;;;;;13.93;12.40;;;;;;;34.05;51.31;100689.63;5036537;28;69592;-33
2022/04/20 06:23:26;;;;;;;13.48;12.05;;;;;;;33.89;50.76;100653.13;5032161;28;66014;-33
2022/04/20 06:26:15;;;;;;;13.30;11.95;;;;;;;34.06;51.09;100668.66;5036967;28;70148;-33
2022/04/20 06:29:12;;;;;;;13.15;11.85;;;;;;;34.09;51.07;100679.88;5039303;28;66997;-33
2022/04/20 06:32:09;;;;;;;20.40;11.85;;;;;;;34.13;50.93;100675.59;5035445;28;69618;-33
2022/04/20 06:35:02;;;;;;;13.15;11.85;;;;;;;34.14;50.96;100670.97;5039586;28;65767;-33
2022/04/20 06:37:48;;;;;;;15.40;11.75;;;;;;;34.15;50.77;100673.44;5033127;28;70442;-33
2022/04/20 06:40:52;;;;;;;16.63;12.18;;;;;;;34.10;50.68;100661.63;5013157;28;66215;-34
2022/04/20 06:43:41;;;;;;;13.20;11.93;;;;;;;34.15;50.78;100657.09;5037385;28;69741;-33
2022/04/20 06:46:46;;;;;;;15.82;12.20;;;;;;;34.16;50.83;100652.50;5032711;28;66263;-33
2022/04/20 06:49:17;;;;;;;13.68;12.27;;;;;;;34.15;50.66;100651.66;5036934;28;69036;-33
2022/04/20 07:00:35;;;;;;;16.00;11.52;;;;;;;34.19;50.66;100636.50;5041452;28;69363;-33
2022/04/20 07:03:14;;;;;;;15.70;11.95;;;;;;;34.19;50.84;100636.50;5040508;28;66678;-33
2022/04/20 07:06:11;;;;;;;12.18;11.07;;;;;;;34.18;50.73;100615.78;5000177;28;69365;-33
2022/04/20 07:09:05;;;;;;;16.83;11.68;;;;;;;34.19;51.07;100603.81;5040650;28;65818;-33
2022/04/20 07:11:45;;;;;;;18.15;11.35;;;;;;;34.21;50.85;100601.69;5023297;28;70015;-32
2022/04/20 07:14:16;;;;;;;13.45;11.85;;;;;;;34.20;50.74;100597.28;5039366;28;65301;-33
2022/04/20 07:16:47;;;;;;;12.93;11.45;;;;;;;34.22;50.82;100599.78;5031269;28;70380;-32
2022/04/20 07:19:32;;;;;;;12.70;11.20;;;;;;;34.20;50.45;100604.66;5041674;28;66230;-33
2022/04/20 07:22:18;;;;;;;12.75;11.35;;;;;;;34.19;50.89;100609.28;5038048;28;69201;-32
2022/04/20 07:25:07;;;;;;;15.05;11.10;;;;;;;34.15;50.97;100599.94;5014361;28;65024;-32
2022/04/20 07:27:54;;;;;;;14.13;10.98;;;;;;;33.89;51.09;100565.22;5035780;28;70516;-32
2022/04/20 07:30:48;;;;;;;14.13;11.00;;;;;;;34.20;51.11;100610.09;5033851;28;66218;-32
2022/04/20 07:33:37;;;;;;;13.95;10.95;;;;;;;34.18;51.34;100610.31;5032298;28;69520;-33
2022/04/20 07:36:30;;;;;;;15.20;12.38;;;;;;;34.18;51.14;100601.34;5035341;28;65642;-32
2022/04/20 07:39:09;;;;;;;17.52;12.35;;;;;;;34.18;51.12;100606.78;5041291;28;70618;-32
2022/04/20 07:41:58;;;;;;;14.45;12.95;;;;;;;34.17;51.30;100622.28;5036677;28;65275;-33
2022/04/20 07:44:43;;;;;;;15.95;12.38;;;;;;;34.17;51.16;100638.63;5041047;28;71237;-33
2022/04/20 07:47:37;;;;;;;13.20;12.00;;;;;;;34.11;51.52;100634.19;5011898;28;66572;-33
2022/04/20 07:50:31;;;;;;;16.65;13.02;;;;;;;34.01;51.67;100612.22;5027216;28;70749;-32
2022/04/20 07:53:07;;;;;;;16.10;12.65;;;;;;;33.87;51.41;100589.13;5041521;28;66234;-33
2022/04/20 07:55:56;;;;;;;15.27;12.10;;;;;;;34.04;51.42;100614.44;5035404;28;69929;-32
2022/04/20 07:58:45;;;;;;;15.95;13.07;;;;;;;34.08;51.72;100612.09;5039599;28;66403;-32
2022/04/20 08:01:32;;;;;;;16.83;13.25;;;;;;;34.06;51.86;100612.31;5038573;28;70118;-33
2022/04/20 08:04:29;;;;;;;17.25;13.40;;;;;;;34.02;51.77;100603.00;5017083;28;66262;-33
2022/04/20 08:07:20;;;;;;;16.38;13.00;;;;;;;34.04;51.52;100614.44;5027801;28;69560;-33
2022/04/20 08:09:51;;;;;;;15.97;13.30;;;;;;;34.05;51.60;100609.88;5041482;28;66313;-32
2022/04/20 08:12:23;;;;;;;14.63;13.10;;;;;;;34.04;51.71;100600.81;5036709;28;70221;-32
2022/04/20 08:14:55;;;;;;;16.83;13.55;;;;;;;33.79;51.87;100563.16;5035960;28;66629;-34
2022/04/20 08:17:33;;;;;;;14.30;12.88;;;;;;;34.03;51.84;100604.63;5040007;28;70564;-33
2022/04/20 08:20:26;;;;;;;14.48;13.02;;;;;;;33.99;52.08;100604.31;5014864;28;65671;-31
2022/04/20 08:22:58;;;;;;;19.90;13.88;;;;;;;34.02;51.42;100603.00;5037926;28;69168;-33
2022/04/20 08:25:29;;;;;;;15.07;13.00;;;;;;;33.99;51.61;100596.16;5041571;28;66214;-32
2022/04/20 08:28:00;;;;;;;19.83;13.23;;;;;;;33.98;51.91;100602.66;5041658;28;70660;-32
2022/04/20 08:30:31;;;;;;;16.00;13.13;;;;;;;33.98;51.97;100604.53;5041916;28;66515;-34
2022/04/20 08:33:02;;;;;;;18.95;13.77;;;;;;;33.98;52.27;100602.66;5029460;28;70212;-33
2022/04/20 08:35:34;;;;;;;16.00;14.32;;;;;;;33.95;52.29;100602.31;5037315;28;65007;-32
2022/04/20 08:38:05;;;;;;;16.33;14.63;;;;;;;33.92;51.96;100600.09;5038884;28;69069;-33
2022/04/20 08:40:36;;;;;;;20.97;15.33;;;;;;;33.88;52.08;100598.94;5040873;28;66006;-32
2022/04/20 08:43:07;;;;;;;17.15;14.02;;;;;;;33.91;52.29;100604.72;5040282;28;70110;-34
2022/04/20 08:45:40;;;;;;;21.13;15.23;;;;;;;33.84;52.33;100600.50;5037464;28;66139;-33
2022/04/20 08:48:12;;;;;;;16.48;13.68;;;;;;;33.85;52.54;100602.16;5039006;28;70024;-35
2022/04/20 08:50:43;;;;;;;19.25;15.18;;;;;;;33.87;52.26;100605.47;5040785;28;65598;-34
2022/04/20 08:53:15;;;;;;;;;;;;;;;33.57;53.30;100606.59;5040580;28;69105;-33
2022/04/20 08:55:46;;;;;;;18.70;14.37;;;;;;;33.85;52.47;100602.16;5040307;28;66407;-33
2022/04/20 08:58:17;;;;;;;17.63;14.97;;;;;;;33.82;52.63;100589.88;5039007;28;69609;-33
2022/04/20 09:00:48;;;;;;;17.10;14.82;;;;;;;33.85;52.65;100589.41;5040431;28;66167;-33
2022/04/20 09:03:20;;;;;;;16.35;14.93;;;;;;;33.87;52.34;100589.13;5041015;28;70389;-33
2022/04/20 09:05:51;;;;;;;20.52;15.32;;;;;;;33.77;52.79;100585.19;5033440;28;65983;-34
2022/04/20 09:08:25;;;;;;;19.55;15.82;;;;;;;33.79;52.41;100577.59;5039032;28;70731;-33
2022/04/20 09:10:57;;;;;;;20.15;15.10;;;;;;;33.84;52.47;100581.47;5038498;28;64956;-33
2022/04/20 09:13:38;;;;;;;17.20;14.93;;;;;;;33.34;52.75;100493.31;5040739;28;69104;-33
2022/04/20 09:16:11;;;;;;;21.80;15.55;;;;;;;33.41;52.61;100493.19;5036200;28;65806;-33
2022/04/20 09:18:42;;;;;;;25.52;15.02;;;;;;;33.81;52.61;100552.84;5040713;28;70089;-33
2022/04/20 09:21:15;;;;;;;16.55;14.75;;;;;;;33.72;52.70;100555.19;5039446;28;66260;-34
2022/04/20 09:23:46;;;;;;;18.58;15.10;;;;;;;33.78;52.84;100580.56;5039642;28;69659;-33
2022/04/20 09:26:17;;;;;;;20.63;15.50;;;;;;;33.67;52.69;100557.81;5040728;28;66506;-32
2022/04/20 09:29:08;;;;;;;17.23;15.50;;;;;;;33.24;52.82;100510.31;5039128;28;71020;-34
2022/04/20 09:31:46;;;;;;;19.00;15.23;;;;;;;33.32;52.91;100509.91;5037743;28;66498;-33
2022/04/20 09:37:31;;;;;;;19.00;15.63;;;;;;;33.74;52.80;100590.28;5023681;28;66503;-32
2022/04/20 09:40:32;;;;;;;16.67;14.95;;;;;;;33.28;53.00;100533.19;5036334;28;70197;-32
2022/04/20 09:43:15;;;;;;;22.20;16.25;;;;;;;33.74;53.02;100612.88;5038293;28;65994;-33
2022/04/20 09:49:10;;;;;;;19.08;15.27;;;;;;;33.67;53.27;100625.00;5038267;28;66097;-33
2022/04/20 09:51:42;;;;;;;21.23;15.88;;;;;;;33.41;52.98;100574.75;5039649;28;70667;-33
2022/04/20 09:54:27;;;;;;;19.15;15.73;;;;;;;33.65;52.99;100625.22;5040052;28;66005;-32
2022/04/20 09:57:12;;;;;;;18.02;14.82;;;;;;;33.54;53.37;100609.78;5036258;28;69222;-32
2022/04/20 10:00:00;;;;;;;18.88;15.82;;;;;;;33.60;53.07;100627.88;5039076;28;65775;-31
2022/04/20 10:02:53;;;;;;;22.70;15.95;;;;;;;33.67;53.10;100639.41;5039412;28;70598;-33
2022/04/20 10:05:24;;;;;;;17.05;15.30;;;;;;;33.70;53.17;100644.34;5036832;28;65264;-33
2022/04/20 10:07:59;;;;;;;;;;;;;;;33.34;53.99;100638.22;5039982;28;43478;-33
2022/04/20 10:10:31;;;;;;;16.55;15.05;;;;;;;33.64;53.06;100637.19;5038685;28;65558;-33
2022/04/20 10:13:04;;;;;;;16.00;14.30;;;;;;;33.60;53.16;100622.44;5038935;28;70098;-32
2022/04/20 10:18:28;;;;;;;22.08;15.40;;;;;;;33.64;53.21;100629.03;5037892;28;69638;-33
2022/04/20 10:21:11;;;;;;;16.13;14.32;;;;;;;33.58;53.26;100635.44;5039168;28;67067;-33
2022/04/20 10:23:50;;;;;;;18.08;14.43;;;;;;;33.63;53.42;100642.84;5040085;28;69945;-33
2022/04/20 10:26:22;;;;;;;17.48;15.10;;;;;;;33.62;53.35;100642.03;5037122;28;66360;-33
2022/04/20 10:29:08;;;;;;;17.92;14.70;;;;;;;33.16;53.62;100570.50;5039296;28;70569;-33
2022/04/20 10:31:41;;;;;;;17.98;14.27;;;;;;;33.59;53.40;100637.91;5032465;28;65180;-33
2022/04/20 10:34:18;;;;;;;17.30;15.38;;;;;;;33.58;53.43;100625.38;5037683;28;69496;-33
2022/04/20 10:37:04;;;;;;;17.02;14.85;;;;;;;33.44;53.20;100610.41;5037063;28;66181;-33
2022/04/20 10:39:45;;;;;;;16.58;13.43;;;;;;;33.51;53.54;100618.41;5038523;28;70525;-33
2022/04/20 10:42:21;;;;;;;16.30;13.50;;;;;;;33.56;53.39;100621.25;5038318;28;66508;-33
2022/04/20 10:45:05;;;;;;;15.25;13.63;;;;;;;33.54;53.62;100626.09;5027745;28;69415;-33
2022/04/20 10:47:43;;;;;;;15.55;12.98;;;;;;;33.49;53.64;100631.41;5023324;28;66251;-33
2022/04/20 10:50:22;;;;;;;16.58;13.43;;;;;;;33.04;53.43;100566.97;5034263;28;70162;-36
2022/04/20 10:53:05;;;;;;;16.25;13.02;;;;;;;33.15;53.59;100599.56;5032155;28;65669;-32
2022/04/20 10:55:41;;;;;;;12.77;11.77;;;;;;;33.52;53.66;100658.16;5041008;28;69560;-33
2022/04/20 10:58:22;;;;;;;;;;;;;;;33.15;54.48;100661.22;5031964;28;65690;-34
2022/04/20 11:01:12;;;;;;;19.05;13.43;;;;;;;33.24;53.88;100646.22;5038539;28;69431;-34
2022/04/20 11:04:03;;;;;;;12.70;11.50;;;;;;;33.22;55.73;100680.97;5029985;28;66058;-33
2022/04/20 11:07:04;;;;;;;22.13;11.75;;;;;;;33.05;57.74;100696.38;5035494;28;69602;-30
2022/04/20 11:09:48;;;;;;;28.60;11.95;;;;;;;33.04;58.17;100700.13;5036782;28;65359;-32
2022/04/20 11:18:42;;;;;;;21.17;11.18;;;;;;;32.84;58.92;100706.75;5036633;28;70098;-33
2022/04/20 11:21:52;;;;;;;23.58;10.88;;;;;;;32.81;59.75;100718.09;5036312;28;66514;-33
2022/04/20 11:24:30;;;;;;;17.83;10.15;;;;;;;32.14;60.36;100606.28;5037487;28;70112;-33
2022/04/20 11:27:02;;;;;;;30.85;10.35;;;;;;;32.88;60.76;100729.69;5037304;28;67077;-32
2022/04/20 11:29:33;;;;;;;18.23;10.80;;;;;;;32.87;61.05;100732.63;5037050;28;70405;-33
2022/04/20 11:32:05;;;;;;;14.95;10.60;;;;;;;32.85;61.08;100734.75;5025527;28;65739;-32
2022/04/20 11:35:08;;;;;;;13.50;9.85;;;;;;;32.74;61.75;100743.75;5017799;28;70437;-34
2022/04/20 11:37:39;;;;;;;15.07;10.52;;;;;;;32.82;61.62;100741.50;5032344;28;66175;-33
2022/04/20 11:40:13;;;;;;;17.60;10.38;;;;;;;32.81;61.22;100756.13;5040911;28;69690;-33
2022/04/20 11:43:04;;;;;;;15.25;10.65;;;;;;;31.97;61.71;100641.44;5040499;28;65761;-34
2022/04/20 11:45:55;;;;;;;22.77;13.57;;;;;;;32.76;61.70;100764.16;5019329;28;69077;-35
2022/04/20 11:48:27;;;;;;;27.77;14.18;;;;;;;32.68;60.77;100761.78;5042152;28;66197;-33
2022/04/20 11:51:00;;;;;;;22.17;13.07;;;;;;;32.71;60.15;100773.03;5042210;28;70528;-33
2022/04/20 11:53:43;;;;;;;23.63;12.27;;;;;;;32.64;59.96;100772.28;5042997;28;65637;-36
2022/04/20 11:56:41;;;;;;;28.95;13.77;;;;;;;32.11;60.13;100705.28;5040783;28;70000;-38
2022/04/20 11:59:18;;;;;;;18.70;13.70;;;;;;;32.61;59.65;100780.09;5057489;28;64951;-34
2022/04/20 12:01:52;;;;;;;22.45;16.70;;;;;;;32.56;60.04;100774.53;5033744;28;70261;-33
2022/04/20 12:04:28;;;;;;;27.95;16.33;;;;;;;32.24;60.17;100728.66;5032606;28;65338;-34
2022/04/20 12:07:03;;;;;;;22.85;14.63;;;;;;;32.53;59.61;100786.69;5042066;28;70383;-33
2022/04/20 12:09:42;;;;;;;29.33;19.63;;;;;;;32.45;59.30;100789.72;5041759;28;65291;-32
2022/04/20 12:12:35;;;;;;;30.42;19.35;;;;;;;32.46;58.93;100796.84;5039702;28;70355;-34
2022/04/20 12:15:15;;;;;;;24.42;13.38;;;;;;;32.36;59.19;100791.94;5038760;28;66349;-33
2022/04/20 12:17:50;;;;;;;19.70;13.02;;;;;;;31.98;59.31;100736.16;5003852;28;69506;-32
2022/04/20 12:20:26;;;;;;;18.35;10.80;;;;;;;32.39;59.36;100824.06;5039105;28;66461;-36
2022/04/20 12:23:09;;;;;;;18.42;9.75;;;;;;;32.37;59.38;100820.72;5037640;28;69927;-33
2022/04/20 12:25:54;;;;;;;10.37;9.17;;;;;;;32.34;59.16;100832.06;5022689;28;65366;-34
2022/04/20 12:28:42;;;;;;;17.73;8.05;;;;;;;32.08;59.27;100808.84;5033115;28;70079;-34
2022/04/20 12:31:24;;;;;;;17.58;7.97;;;;;;;32.28;59.24;100844.66;5031461;28;66208;-35
2022/04/20 12:34:08;;;;;;;39.22;8.98;;;;;;;32.23;59.38;100841.00;5034148;28;69856;-34
2022/04/20 12:36:53;;;;;;;13.60;7.90;;;;;;;31.94;59.18;100801.97;5034569;28;66239;-36